Time;durP1;ratioP1;P1;durP2;ratioP2;P2;SDS_P1;SDS_P2;PMS_P1;PMS_P2;Temp;Humidity;BMP_temperature;BMP_pressure;BME280_temperature;BME280_humidity;BME280_pressure;Samples;Min_cycle;Max_cycle;Signal;HPM_P1;HPM_P2
2021/12/07 00:01:30;;;;;;;8.37;6.17;;;3.50;99.90;;;;;;5056221;28;20235;-83
2021/12/07 00:03:56;;;;;;;9.37;5.90;;;3.50;99.90;;;;;;5056026;28;20418;-83
2021/12/07 00:06:22;;;;;;;12.40;6.17;;;3.50;99.90;;;;;;5055469;28;20849;-83
2021/12/07 00:08:53;;;;;;;14.33;6.47;;;3.50;99.90;;;;;;5055123;28;21008;-83
2021/12/07 00:11:20;;;;;;;10.40;6.80;;;3.60;99.90;;;;;;5055725;28;20410;-84
2021/12/07 00:13:45;;;;;;;9.40;6.90;;;3.60;99.90;;;;;;5060154;28;20417;-84
2021/12/07 00:16:11;;;;;;;10.27;5.80;;;3.80;99.90;;;;;;5059709;28;20417;-82
2021/12/07 00:18:38;;;;;;;6.93;4.60;;;3.70;99.90;;;;;;5059363;28;20260;-83
2021/12/07 00:21:05;;;;;;;6.13;3.87;;;3.70;99.90;;;;;;5059222;28;20916;-83
2021/12/07 00:23:32;;;;;;;5.13;2.83;;;3.70;99.90;;;;;;5059328;28;20425;-83
2021/12/07 00:25:57;;;;;;;4.00;2.80;;;3.60;99.90;;;;;;5059806;28;20407;-83
2021/12/07 00:28:23;;;;;;;5.60;3.27;;;3.60;99.90;;;;;;5058885;28;20999;-83
2021/12/07 00:30:51;;;;;;;4.80;2.40;;;3.40;99.90;;;;;;5059417;28;20207;-83
2021/12/07 00:33:34;;;;;;;5.33;3.30;;;3.40;99.90;;;;;;5059688;28;20417;-83
2021/12/07 00:36:00;;;;;;;5.80;3.40;;;3.40;99.90;;;;;;5059776;28;20490;-82
2021/12/07 00:38:26;;;;;;;5.23;3.03;;;3.40;99.90;;;;;;5059201;28;20445;-82
2021/12/07 00:40:54;;;;;;;4.30;3.20;;;3.40;99.90;;;;;;5058950;28;20483;-82
2021/12/07 00:43:20;;;;;;;5.73;3.00;;;3.10;99.90;;;;;;5059328;28;20420;-83
2021/12/07 00:45:46;;;;;;;5.17;3.47;;;3.20;99.90;;;;;;5059726;28;20421;-82
2021/12/07 00:48:14;;;;;;;4.20;3.47;;;3.30;99.90;;;;;;5060014;28;20570;-82
2021/12/07 00:50:45;;;;;;;4.70;3.20;;;3.30;99.90;;;;;;5058517;28;20485;-82
2021/12/07 00:53:11;;;;;;;6.50;3.27;;;3.20;99.90;;;;;;5058307;28;20412;-82
2021/12/07 00:55:41;;;;;;;5.27;3.43;;;3.20;99.90;;;;;;5059063;28;20416;-82
2021/12/07 00:58:17;;;;;;;6.30;4.17;;;3.30;99.90;;;;;;5059706;28;20476;-82
2021/12/07 01:00:44;;;;;;;6.70;4.53;;;3.50;99.90;;;;;;5059801;28;20418;-82
2021/12/07 01:03:09;;;;;;;6.57;4.40;;;3.50;99.90;;;;;;5058815;28;20421;-82
2021/12/07 01:05:36;;;;;;;8.90;5.37;;;3.40;99.90;;;;;;5059361;28;21076;-82
2021/12/07 01:27:04;;;;;;;12.07;8.43;;;3.90;99.90;;;;;;5060801;28;21190;-82
2021/12/07 01:29:29;;;;;;;13.03;8.13;;;3.90;99.90;;;;;;5060209;28;20453;-83
2021/12/07 01:32:21;;;;;;;13.37;9.90;;;4.00;99.90;;;;;;5059668;28;20432;-83
2021/12/07 01:36:01;;;;;;;13.53;10.10;;;4.00;99.90;;;;;;5058981;28;20414;-82
2021/12/07 01:38:21;;;;;;;17.80;10.57;;;4.10;99.90;;;;;;5046897;28;20445;-82
2021/12/07 02:01:48;;;;;;;11.90;7.83;;;4.30;99.90;;;;;;5059397;28;20436;-82
2021/12/07 02:04:14;;;;;;;12.37;7.90;;;4.40;99.90;;;;;;5058201;28;20418;-83
2021/12/07 02:06:39;;;;;;;11.33;7.67;;;4.40;99.90;;;;;;5058609;28;20271;-83
2021/12/07 02:09:07;;;;;;;9.77;6.90;;;4.50;99.90;;;;;;5058778;28;20450;-82
2021/12/07 02:11:33;;;;;;;10.33;6.93;;;4.50;99.90;;;;;;5058971;28;20179;-82
2021/12/07 02:16:30;;;;;;;12.80;6.43;;;4.50;99.90;;;;;;5059019;28;20627;-82
2021/12/07 02:18:56;;;;;;;10.50;6.27;;;4.50;99.90;;;;;;5057841;28;20267;-82
2021/12/07 02:21:26;;;;;;;8.27;5.03;;;4.60;99.90;;;;;;5056633;28;20438;-82
2021/12/07 02:23:52;;;;;;;9.20;5.40;;;4.60;99.90;;;;;;5057128;28;20189;-82
2021/12/07 02:26:19;;;;;;;10.30;6.07;;;4.50;99.90;;;;;;5057077;28;20415;-82
2021/12/07 02:28:46;;;;;;;12.87;5.70;;;4.50;99.90;;;;;;5056857;28;20449;-83
2021/12/07 02:31:12;;;;;;;13.40;6.60;;;4.60;99.90;;;;;;5055572;28;20424;-82
2021/12/07 02:33:39;;;;;;;18.03;8.73;;;4.60;99.90;;;;;;5056814;28;20429;-82
2021/12/07 02:36:06;;;;;;;10.00;5.93;;;4.60;99.90;;;;;;5055899;28;20421;-82
2021/12/07 02:38:32;;;;;;;13.63;5.67;;;4.60;99.90;;;;;;5054883;28;20811;-83
2021/12/07 02:40:58;;;;;;;13.57;6.73;;;4.70;99.90;;;;;;5054975;28;20796;-82
2021/12/07 02:43:24;;;;;;;15.37;8.27;;;4.70;99.90;;;;;;5054973;28;20450;-82
2021/12/07 02:45:50;;;;;;;12.83;7.33;;;4.70;99.90;;;;;;5057059;28;20414;-82
2021/12/07 02:48:16;;;;;;;19.27;6.63;;;4.80;99.90;;;;;;5055277;28;20439;-82
2021/12/07 02:50:41;;;;;;;22.10;8.17;;;4.80;99.90;;;;;;5055636;28;20230;-82
2021/12/07 02:53:07;;;;;;;22.77;8.13;;;4.80;99.90;;;;;;5055880;28;20187;-82
2021/12/07 02:55:34;;;;;;;15.50;6.33;;;4.80;99.90;;;;;;5055847;28;20720;-83
2021/12/07 02:58:00;;;;;;;11.60;7.73;;;4.80;99.90;;;;;;5071205;22;20235;-84
2021/12/07 03:00:33;;;;;;;14.90;7.60;;;4.80;99.90;;;;;;5033139;28;20794;-84
2021/12/07 03:03:05;;;;;;;15.63;7.17;;;4.80;99.90;;;;;;5031857;28;20177;-86
2021/12/07 03:27:56;;;;;;;15.43;6.10;;;5.00;99.90;;;;;;5033685;28;20469;-85
2021/12/07 03:30:23;;;;;;;9.73;4.50;;;5.00;99.90;;;;;;5031869;28;20462;-85
2021/12/07 03:32:49;;;;;;;11.13;3.90;;;5.10;99.90;;;;;;5032048;28;20427;-85
2021/12/07 03:35:15;;;;;;;15.43;4.90;;;5.00;99.90;;;;;;5031929;28;20434;-84
2021/12/07 03:37:41;;;;;;;13.47;5.17;;;5.00;99.90;;;;;;5033566;28;20202;-85
2021/12/07 03:40:08;;;;;;;10.67;4.43;;;5.10;99.90;;;;;;5031626;28;20423;-84
2021/12/07 03:42:34;;;;;;;14.57;5.37;;;5.10;99.90;;;;;;5033268;28;20421;-86
2021/12/07 03:45:00;;;;;;;10.23;3.93;;;5.10;99.90;;;;;;5031959;28;20785;-85
2021/12/07 03:47:25;;;;;;;11.10;5.03;;;5.00;99.90;;;;;;5031615;28;20244;-85
2021/12/07 03:49:51;;;;;;;15.83;4.60;;;5.00;99.90;;;;;;5031666;28;20208;-85
2021/12/07 03:52:16;;;;;;;12.13;4.03;;;5.00;99.90;;;;;;5032764;28;20213;-85
2021/12/07 03:54:42;;;;;;;12.20;4.30;;;5.00;99.90;;;;;;5031808;28;20181;-85
2021/12/07 03:57:08;;;;;;;13.87;4.40;;;5.00;99.90;;;;;;5031952;28;20214;-84
2021/12/07 03:59:33;;;;;;;9.73;4.37;;;5.00;99.90;;;;;;5033006;28;20244;-84
2021/12/07 04:01:59;;;;;;;11.40;4.33;;;4.90;99.90;;;;;;5031569;28;20208;-84
2021/12/07 04:04:25;;;;;;;11.50;6.90;;;4.80;99.90;;;;;;5031906;28;20228;-85
2021/12/07 04:06:51;;;;;;;7.80;4.50;;;4.80;99.90;;;;;;5031812;28;20242;-85
2021/12/07 04:09:16;;;;;;;12.70;5.43;;;4.80;99.90;;;;;;5031227;28;20210;-84
2021/12/07 04:11:42;;;;;;;13.73;5.40;;;4.80;99.90;;;;;;5031547;28;20269;-86
2021/12/07 04:14:07;;;;;;;20.97;5.13;;;4.80;99.90;;;;;;5032926;28;20226;-84
2021/12/07 04:16:34;;;;;;;11.07;5.10;;;4.70;99.90;;;;;;5033010;28;20181;-86
2021/12/07 04:19:00;;;;;;;18.67;4.70;;;4.70;99.90;;;;;;5031447;28;20281;-84
2021/12/07 04:21:26;;;;;;;9.50;4.80;;;4.60;99.90;;;;;;5031261;28;20930;-84
2021/12/07 04:23:51;;;;;;;10.50;6.07;;;4.60;99.90;;;;;;5031261;28;20184;-85
2021/12/07 04:26:17;;;;;;;10.60;5.97;;;4.60;99.90;;;;;;5032973;28;20415;-87
2021/12/07 04:28:44;;;;;;;8.07;5.10;;;4.60;99.90;;;;;;5031322;28;20585;-85
2021/12/07 04:31:10;;;;;;;9.60;4.50;;;4.50;99.90;;;;;;5031263;28;20423;-84
2021/12/07 04:33:36;;;;;;;12.17;3.87;;;4.60;99.90;;;;;;5031219;28;20473;-86
2021/12/07 04:36:06;;;;;;;12.27;4.77;;;4.60;99.90;;;;;;5032495;28;20448;-85
2021/12/07 04:38:31;;;;;;;8.03;3.80;;;4.60;99.90;;;;;;5031182;28;20485;-84
2021/12/07 04:40:57;;;;;;;7.83;4.07;;;4.70;99.90;;;;;;5032367;28;20949;-85
2021/12/07 04:43:23;;;;;;;12.63;4.53;;;4.70;99.90;;;;;;5031131;28;20187;-84
2021/12/07 04:45:58;;;;;;;10.07;3.83;;;4.60;99.90;;;;;;5032034;28;20481;-84
2021/12/07 04:48:48;;;;;;;12.73;4.97;;;4.60;99.90;;;;;;5031269;28;20298;-85
2021/12/07 04:59:22;;;;;;;11.13;5.20;;;4.60;99.90;;;;;;5035842;28;20500;-84
2021/12/07 05:01:48;;;;;;;13.10;5.20;;;4.50;99.90;;;;;;5034714;28;20482;-84
2021/12/07 05:04:20;;;;;;;12.80;5.20;;;4.50;99.90;;;;;;5034846;28;20182;-85
2021/12/07 05:06:49;;;;;;;9.60;4.83;;;4.50;99.90;;;;;;5034671;28;20792;-85
2021/12/07 05:10:02;;;;;;;10.90;4.40;;;4.40;99.90;;;;;;5034203;28;20461;-85
2021/12/07 05:14:45;;;;;;;10.53;5.07;;;4.40;99.90;;;;;;5035973;28;20411;-86
2021/12/07 05:17:40;;;;;;;11.97;5.03;;;4.40;99.90;;;;;;5034641;28;20180;-85
2021/12/07 05:23:55;;;;;;;7.90;5.20;;;4.40;99.90;;;;;;5036181;28;20403;-85
2021/12/07 05:39:27;;;;;;;10.77;5.73;;;4.50;99.90;;;;;;5035449;28;20437;-84
2021/12/07 05:41:54;;;;;;;13.20;6.50;;;4.40;99.90;;;;;;5038916;28;20426;-87
2021/12/07 05:44:19;;;;;;;9.43;5.47;;;4.40;99.90;;;;;;5040191;28;20831;-87
2021/12/07 05:46:45;;;;;;;14.23;6.70;;;4.40;99.90;;;;;;5038839;28;20414;-87
2021/12/07 05:49:11;;;;;;;21.77;6.70;;;4.40;99.90;;;;;;5037709;28;20212;-87
2021/12/07 05:51:37;;;;;;;17.93;7.20;;;4.30;99.90;;;;;;5037847;28;20172;-84
2021/12/07 05:54:02;;;;;;;13.20;5.83;;;4.30;99.90;;;;;;5038470;28;20706;-85
2021/12/07 05:56:28;;;;;;;15.27;6.00;;;4.40;99.90;;;;;;5037900;28;20430;-86
2021/12/07 05:58:53;;;;;;;11.17;4.67;;;4.40;99.90;;;;;;5040142;28;20354;-87
2021/12/07 06:01:19;;;;;;;8.97;4.43;;;4.40;99.90;;;;;;5039934;28;20588;-87
2021/12/07 06:03:45;;;;;;;12.63;4.70;;;4.40;99.90;;;;;;5040409;28;20195;-87
2021/12/07 06:06:10;;;;;;;14.27;6.50;;;4.40;99.90;;;;;;5039677;28;20591;-86
2021/12/07 06:08:36;;;;;;;9.30;5.07;;;4.40;99.90;;;;;;5039568;28;20579;-87
2021/12/07 06:11:01;;;;;;;15.50;5.07;;;4.40;99.90;;;;;;5039774;28;20665;-87
2021/12/07 06:13:27;;;;;;;8.10;3.97;;;4.30;99.90;;;;;;5039102;28;20184;-88
2021/12/07 06:15:53;;;;;;;7.53;3.87;;;4.30;99.90;;;;;;5039157;28;20188;-85
2021/12/07 06:18:18;;;;;;;10.73;3.70;;;4.30;99.90;;;;;;5039152;28;20697;-86
2021/12/07 06:20:45;;;;;;;10.13;4.93;;;4.30;99.90;;;;;;5039426;28;20801;-87
2021/12/07 06:23:13;;;;;;;14.80;6.27;;;4.20;99.90;;;;;;5038322;28;20185;-87
2021/12/07 06:25:39;;;;;;;10.57;5.40;;;4.30;99.90;;;;;;5039205;28;20462;-88
2021/12/07 06:28:04;;;;;;;11.87;6.13;;;4.20;99.90;;;;;;5039345;28;20477;-87
2021/12/07 06:30:30;;;;;;;9.97;5.30;;;4.20;99.90;;;;;;5037406;28;20991;-87
2021/12/07 06:32:56;;;;;;;10.40;4.97;;;4.20;99.90;;;;;;5039082;28;20239;-86
2021/12/07 06:35:22;;;;;;;8.27;4.57;;;4.20;99.90;;;;;;5038043;28;20415;-86
2021/12/07 06:37:47;;;;;;;8.13;4.07;;;4.20;99.90;;;;;;5037682;28;20554;-85
2021/12/07 06:40:13;;;;;;;6.20;3.80;;;4.20;99.90;;;;;;5037430;28;20188;-87
2021/12/07 06:42:40;;;;;;;12.10;4.50;;;4.20;99.90;;;;;;5037781;28;20192;-87
2021/12/07 06:45:10;;;;;;;12.83;5.57;;;4.30;99.90;;;;;;5037426;28;20643;-85
2021/12/07 06:47:37;;;;;;;13.13;4.50;;;4.30;99.90;;;;;;5038208;28;20438;-87
2021/12/07 06:50:06;;;;;;;10.87;4.40;;;4.40;99.90;;;;;;5036557;28;20456;-86
2021/12/07 06:52:33;;;;;;;14.30;5.60;;;4.40;99.90;;;;;;5036931;28;20421;-85
2021/12/07 06:54:59;;;;;;;12.73;4.80;;;4.40;99.90;;;;;;5038391;28;20421;-87
2021/12/07 06:57:26;;;;;;;15.90;5.13;;;4.40;99.90;;;;;;5036607;28;20447;-85
2021/12/07 06:59:53;;;;;;;12.80;4.43;;;4.40;99.90;;;;;;5037656;28;20428;-86
2021/12/07 07:02:19;;;;;;;15.03;5.07;;;4.40;99.90;;;;;;5038663;28;20430;-87
2021/12/07 07:04:44;;;;;;;16.27;5.37;;;4.40;99.90;;;;;;5036095;28;20419;-86
2021/12/07 07:07:10;;;;;;;12.03;4.40;;;4.30;99.90;;;;;;5034961;28;20188;-85
2021/12/07 07:09:36;;;;;;;7.00;3.63;;;4.30;99.90;;;;;;5035779;28;20211;-86
2021/12/07 07:12:02;;;;;;;9.97;4.50;;;4.30;99.90;;;;;;5034031;28;20964;-87
2021/12/07 07:14:28;;;;;;;11.23;3.30;;;4.30;99.90;;;;;;5034434;28;20293;-86
2021/12/07 07:16:53;;;;;;;11.27;4.20;;;4.20;99.90;;;;;;5033929;28;20957;-86
2021/12/07 07:19:19;;;;;;;15.33;4.50;;;4.10;99.90;;;;;;5034052;28;20205;-87
2021/12/07 07:21:45;;;;;;;12.70;4.80;;;4.10;99.90;;;;;;5033419;28;20203;-84
2021/12/07 07:24:11;;;;;;;9.20;3.80;;;4.10;99.90;;;;;;5032155;28;20185;-86
2021/12/07 07:26:37;;;;;;;11.80;3.87;;;4.00;99.90;;;;;;5031874;28;20192;-85
2021/12/07 07:29:03;;;;;;;5.90;3.30;;;4.00;99.90;;;;;;5031781;28;20612;-85
2021/12/07 07:31:29;;;;;;;10.17;4.30;;;4.00;99.90;;;;;;5031501;28;20555;-85
2021/12/07 07:33:55;;;;;;;9.43;3.40;;;4.00;99.90;;;;;;5031809;28;20455;-85
2021/12/07 07:36:21;;;;;;;16.37;4.53;;;4.00;99.90;;;;;;5031757;28;20177;-85
2021/12/07 07:38:47;;;;;;;12.27;3.73;;;3.90;99.90;;;;;;5032731;28;20442;-85
2021/12/07 07:41:13;;;;;;;11.40;3.37;;;3.90;99.90;;;;;;5033071;28;20505;-85
2021/12/07 07:43:38;;;;;;;10.03;3.40;;;4.00;99.90;;;;;;5031197;28;20673;-85
2021/12/07 07:46:04;;;;;;;8.73;3.10;;;4.00;99.90;;;;;;5031752;28;20552;-85
2021/12/07 07:48:30;;;;;;;5.23;3.20;;;4.00;99.90;;;;;;5031209;28;20209;-84
2021/12/07 07:50:56;;;;;;;8.40;3.13;;;4.00;99.90;;;;;;5034129;28;20212;-84
2021/12/07 07:53:22;;;;;;;8.60;2.87;;;4.00;99.90;;;;;;5034058;28;20255;-85
2021/12/07 07:55:49;;;;;;;8.57;3.03;;;4.10;99.90;;;;;;5032656;28;20442;-85
2021/12/07 07:58:14;;;;;;;10.43;3.57;;;4.10;99.90;;;;;;5031115;28;20481;-85
2021/12/07 08:00:42;;;;;;;8.97;3.10;;;4.20;99.90;;;;;;5032053;28;20911;-85
2021/12/07 08:03:08;;;;;;;8.47;3.33;;;4.10;99.90;;;;;;5032452;28;20607;-85
2021/12/07 08:05:34;;;;;;;5.90;3.13;;;4.10;99.90;;;;;;5031128;28;20445;-86
2021/12/07 08:07:59;;;;;;;10.30;2.87;;;4.10;99.90;;;;;;5032560;28;20447;-85
2021/12/07 08:10:28;;;;;;;8.77;3.70;;;4.10;99.90;;;;;;5031011;28;20462;-87
2021/12/07 08:12:58;;;;;;;8.47;3.23;;;4.10;99.90;;;;;;5031659;28;20184;-84
2021/12/07 08:15:26;;;;;;;9.70;4.00;;;4.10;99.90;;;;;;5040009;28;20442;-86
2021/12/07 08:17:52;;;;;;;14.03;5.23;;;4.10;99.90;;;;;;5031623;28;20811;-85
2021/12/07 08:20:18;;;;;;;11.40;4.47;;;4.20;99.90;;;;;;5030371;28;20446;-86
2021/12/07 08:22:44;;;;;;;13.63;3.93;;;4.10;99.90;;;;;;5032018;28;20442;-86
2021/12/07 08:25:09;;;;;;;13.67;4.90;;;4.20;99.90;;;;;;5030493;28;20915;-85
2021/12/07 08:27:35;;;;;;;10.40;4.50;;;4.20;99.90;;;;;;5030658;28;20294;-85
2021/12/07 08:30:03;;;;;;;6.67;4.27;;;4.20;99.90;;;;;;5030221;28;20211;-86
2021/12/07 08:32:29;;;;;;;14.57;6.10;;;4.30;99.90;;;;;;5037486;28;20419;-87
2021/12/07 08:34:55;;;;;;;7.63;3.90;;;4.30;99.90;;;;;;5043566;28;20410;-85
2021/12/07 08:37:20;;;;;;;13.73;4.70;;;4.40;99.90;;;;;;5049147;28;20189;-86
2021/12/07 08:39:46;;;;;;;12.40;6.07;;;4.40;99.90;;;;;;5047149;28;20224;-85
2021/12/07 08:42:11;;;;;;;9.73;3.50;;;4.50;99.90;;;;;;5037445;28;20180;-86
2021/12/07 08:44:37;;;;;;;11.57;3.43;;;4.50;99.90;;;;;;5036858;28;20188;-85
2021/12/07 08:47:03;;;;;;;9.30;3.27;;;4.60;99.90;;;;;;5038731;28;20669;-85
2021/12/07 08:49:29;;;;;;;7.83;3.67;;;4.60;99.90;;;;;;5036504;28;20232;-86
2021/12/07 08:51:55;;;;;;;8.63;3.00;;;4.60;99.90;;;;;;5036700;28;20429;-86
2021/12/07 08:54:33;;;;;;;7.00;4.17;;;4.70;99.90;;;;;;5036448;28;20204;-85
2021/12/07 08:59:45;;;;;;;6.97;3.33;;;4.70;99.90;;;;;;5081750;22;20577;-81
2021/12/07 09:02:23;;;;;;;8.47;3.60;;;4.80;99.90;;;;;;5037180;28;20493;-80
2021/12/07 09:04:49;;;;;;;9.43;3.80;;;4.80;99.90;;;;;;5036183;28;20790;-79
2021/12/07 09:07:16;;;;;;;22.37;4.40;;;4.80;99.90;;;;;;5035774;28;20414;-79
2021/12/07 09:09:42;;;;;;;12.30;4.93;;;4.90;99.90;;;;;;5035615;28;20565;-80
2021/12/07 09:12:10;;;;;;;8.17;3.30;;;4.90;99.90;;;;;;5028017;28;20980;-79
2021/12/07 09:14:37;;;;;;;7.60;3.37;;;4.90;99.90;;;;;;5035093;28;20439;-79
2021/12/07 09:17:04;;;;;;;9.00;4.57;;;5.00;99.90;;;;;;5018702;28;20431;-79
2021/12/07 09:19:32;;;;;;;10.90;4.13;;;5.20;99.90;;;;;;5034667;28;20435;-79
2021/12/07 09:21:58;;;;;;;12.23;4.60;;;5.30;99.90;;;;;;5033020;28;20470;-79
2021/12/07 09:24:24;;;;;;;13.57;5.63;;;5.40;99.90;;;;;;5036362;28;20510;-79
2021/12/07 09:26:50;;;;;;;8.33;4.90;;;5.40;99.90;;;;;;5035779;28;20433;-78
2021/12/07 09:29:15;;;;;;;9.90;4.50;;;5.50;99.90;;;;;;5035819;28;20556;-78
2021/12/07 09:31:42;;;;;;;14.43;4.67;;;5.50;99.90;;;;;;5035036;28;20974;-79
2021/12/07 09:34:09;;;;;;;13.10;4.13;;;5.50;99.90;;;;;;5035061;28;20185;-79
2021/12/07 09:36:35;;;;;;;21.23;5.30;;;5.50;99.90;;;;;;5035372;28;20445;-79
2021/12/07 09:39:04;;;;;;;12.10;4.30;;;5.60;99.90;;;;;;5035515;28;20474;-79
2021/12/07 09:41:30;;;;;;;11.30;4.10;;;5.70;99.90;;;;;;5035524;28;20956;-79
2021/12/07 09:43:56;;;;;;;10.83;4.60;;;5.70;99.90;;;;;;5034511;28;20422;-80
2021/12/07 09:46:22;;;;;;;10.23;4.60;;;5.90;99.90;;;;;;5035091;28;20209;-80
2021/12/07 09:48:49;;;;;;;11.07;4.80;;;5.90;99.90;;;;;;5035580;28;20426;-79
2021/12/07 09:51:18;;;;;;;17.37;3.97;;;5.90;99.90;;;;;;5035297;28;20465;-79
2021/12/07 09:53:49;;;;;;;9.27;4.33;;;5.90;99.90;;;;;;5035897;28;20425;-80
2021/12/07 09:56:16;;;;;;;6.90;3.53;;;5.80;99.90;;;;;;5035443;28;20460;-79
2021/12/07 09:58:44;;;;;;;11.37;3.17;;;5.80;99.90;;;;;;5036683;28;21006;-80
2021/12/07 10:01:10;;;;;;;10.60;4.73;;;5.90;99.90;;;;;;5035642;28;20430;-80
2021/12/07 10:03:38;;;;;;;12.13;3.30;;;5.90;99.90;;;;;;5036844;28;20454;-80
2021/12/07 10:06:05;;;;;;;7.27;2.90;;;5.90;99.90;;;;;;5036557;28;20429;-80
2021/12/07 10:08:31;;;;;;;9.23;2.80;;;6.00;99.90;;;;;;5036395;28;20420;-80
2021/12/07 10:10:59;;;;;;;5.40;3.07;;;6.10;99.90;;;;;;5035915;28;20520;-80
2021/12/07 10:13:28;;;;;;;8.83;4.37;;;6.00;99.90;;;;;;5036471;28;20441;-80
2021/12/07 10:15:56;;;;;;;7.03;3.37;;;6.00;99.90;;;;;;5037002;28;20832;-81
2021/12/07 10:18:26;;;;;;;11.23;3.97;;;6.00;99.90;;;;;;5037209;28;20429;-81
2021/12/07 10:20:53;;;;;;;8.17;2.80;;;6.10;99.90;;;;;;5036109;28;20430;-81
2021/12/07 10:23:20;;;;;;;7.40;2.77;;;6.20;99.90;;;;;;5035951;28;20510;-81
2021/12/07 10:26:15;;;;;;;12.60;3.20;;;6.30;99.90;;;;;;5037500;28;20570;-82
2021/12/07 10:28:44;;;;;;;5.60;2.80;;;6.40;99.90;;;;;;5036117;28;20423;-82
2021/12/07 10:31:10;;;;;;;6.27;2.50;;;6.50;99.90;;;;;;5033275;28;20481;-82
2021/12/07 10:34:06;;;;;;;10.40;3.60;;;6.60;99.90;;;;;;5017189;28;20775;-81
2021/12/07 10:36:42;;;;;;;9.93;3.33;;;6.60;99.90;;;;;;5018531;28;20195;-82
2021/12/07 10:39:13;;;;;;;5.80;2.47;;;6.60;99.90;;;;;;5018478;28;20426;-83
2021/12/07 10:41:44;;;;;;;8.80;3.23;;;6.70;99.90;;;;;;5018249;28;20455;-82
2021/12/07 10:44:19;;;;;;;13.27;4.83;;;6.80;99.90;;;;;;5017379;28;20430;-81
2021/12/07 10:46:58;;;;;;;9.67;3.23;;;6.80;99.90;;;;;;5018310;28;20419;-82
2021/12/07 10:49:51;;;;;;;11.90;2.57;;;7.00;99.90;;;;;;5017449;28;20471;-81
2021/12/07 10:52:30;;;;;;;6.33;2.43;;;7.10;99.90;;;;;;5015480;28;20463;-83
2021/12/07 10:55:17;;;;;;;6.33;2.10;;;7.10;99.90;;;;;;5034103;28;20412;-82
2021/12/07 10:57:47;;;;;;;6.60;2.10;;;7.20;99.90;;;;;;5018504;28;20922;-82
2021/12/07 11:00:24;;;;;;;4.87;1.90;;;7.40;99.90;;;;;;5016915;28;20546;-82
2021/12/07 11:03:03;;;;;;;4.80;2.23;;;7.50;99.90;;;;;;5017457;28;20447;-81
2021/12/07 11:05:50;;;;;;;4.43;1.83;;;7.90;99.90;;;;;;5017074;28;20447;-82
2021/12/07 11:08:19;;;;;;;3.90;1.87;;;8.80;99.90;;;;;;5018811;28;20475;-82
2021/12/07 11:10:49;;;;;;;4.90;2.20;;;9.50;99.90;;;;;;5017270;28;20467;-82
2021/12/07 11:13:23;;;;;;;10.67;2.40;;;10.30;99.90;;;;;;5017945;28;20474;-81
2021/12/07 11:15:54;;;;;;;8.77;2.70;;;10.40;99.90;;;;;;5018663;28;20439;-82
2021/12/07 11:18:37;;;;;;;6.23;2.57;;;11.00;99.90;;;;;;5019803;28;20780;-83
2021/12/07 11:21:15;;;;;;;7.97;2.67;;;11.40;99.90;;;;;;5020171;28;20443;-82
2021/12/07 11:23:50;;;;;;;5.87;2.33;;;11.90;99.90;;;;;;5019343;28;20513;-82
2021/12/07 11:31:59;;;;;;;4.13;1.87;;;14.20;99.90;;;;;;5019037;28;20435;-82
2021/12/07 11:34:28;;;;;;;6.13;2.20;;;15.90;99.90;;;;;;5032153;28;20419;-83
2021/12/07 11:37:14;;;;;;;4.57;2.27;;;17.60;99.90;;;;;;5016771;28;21102;-83
2021/12/07 11:39:50;;;;;;;7.83;2.03;;;18.50;99.70;;;;;;5016542;28;20416;-82
2021/12/07 11:42:19;;;;;;;5.17;2.23;;;19.90;94.30;;;;;;5016723;28;21073;-84
2021/12/07 11:44:50;;;;;;;5.93;2.30;;;20.80;88.30;;;;;;5017224;28;20503;-84
2021/12/07 11:47:42;;;;;;;5.87;2.10;;;21.70;83.30;;;;;;5017484;28;20496;-83
2021/12/07 11:50:23;;;;;;;6.90;2.33;;;21.50;77.60;;;;;;5016135;28;20467;-84
2021/12/07 11:52:53;;;;;;;8.53;2.93;;;21.50;75.10;;;;;;5033392;28;20519;-83
2021/12/07 11:55:20;;;;;;;7.23;2.63;;;21.50;71.80;;;;;;5016367;28;20419;-83
2021/12/07 11:57:46;;;;;;;5.87;2.37;;;20.40;69.00;;;;;;5016159;28;20420;-83
2021/12/07 12:00:22;;;;;;;5.83;2.67;;;20.10;73.90;;;;;;5015145;28;20514;-83
2021/12/07 12:02:48;;;;;;;4.70;2.17;;;20.20;70.90;;;;;;5016243;28;20766;-83
2021/12/07 12:05:15;;;;;;;6.60;2.37;;;20.30;70.40;;;;;;5015410;28;20432;-83
2021/12/07 12:07:44;;;;;;;6.00;2.13;;;19.80;68.40;;;;;;5014874;28;20988;-84
2021/12/07 12:10:13;;;;;;;7.03;2.30;;;19.90;68.70;;;;;;5014777;28;20469;-83
2021/12/07 12:12:45;;;;;;;7.90;2.77;;;20.00;69.20;;;;;;5014855;28;20439;-83
2021/12/07 12:15:33;;;;;;;4.77;1.93;;;20.00;66.00;;;;;;5015125;28;20502;-84
2021/12/07 12:18:40;;;;;;;9.73;2.57;;;19.30;67.50;;;;;;5013302;28;20415;-84
2021/12/07 12:21:44;;;;;;;4.87;2.20;;;19.20;67.80;;;;;;5011748;28;20423;-82
2021/12/07 12:24:32;;;;;;;3.30;2.33;;;18.90;64.40;;;;;;5028383;28;20438;-83
2021/12/07 12:27:05;;;;;;;5.83;1.90;;;18.80;67.80;;;;;;5031860;28;20848;-85
2021/12/07 12:29:33;;;;;;;5.47;2.07;;;19.80;67.40;;;;;;5031358;28;20537;-83
2021/12/07 12:31:59;;;;;;;4.43;2.20;;;19.70;65.70;;;;;;5034197;28;20446;-82
2021/12/07 12:34:31;;;;;;;5.93;1.90;;;18.50;62.90;;;;;;5032152;28;20954;-83
2021/12/07 12:37:02;;;;;;;4.83;2.07;;;16.40;68.00;;;;;;5032382;28;20419;-82
2021/12/07 12:39:50;;;;;;;5.10;2.10;;;15.30;78.20;;;;;;5032173;28;20419;-83
2021/12/07 12:42:42;;;;;;;4.90;1.90;;;14.50;83.90;;;;;;5033233;28;20458;-82
2021/12/07 12:45:28;;;;;;;6.57;1.90;;;14.80;87.50;;;;;;5031554;28;20964;-83
2021/12/07 12:47:55;;;;;;;6.20;2.30;;;14.60;84.20;;;;;;5032304;28;21163;-82
2021/12/07 12:50:34;;;;;;;11.77;2.40;;;15.10;83.50;;;;;;5033342;28;20294;-82
2021/12/07 12:53:18;;;;;;;13.13;2.20;;;15.10;82.10;;;;;;5034634;28;20439;-83
2021/12/07 12:55:48;;;;;;;7.10;1.60;;;15.60;81.60;;;;;;5032048;28;20429;-83
2021/12/07 12:58:17;;;;;;;5.80;2.07;;;15.80;79.70;;;;;;5031853;28;20809;-82
2021/12/07 13:01:24;;;;;;;7.13;2.07;;;14.60;79.10;;;;;;5030865;28;20481;-82
2021/12/07 13:04:08;;;;;;;4.30;1.83;;;14.30;87.70;;;;;;4955580;28;20425;-83
2021/12/07 13:06:36;;;;;;;5.00;1.80;;;13.50;84.50;;;;;;4955520;28;20434;-83
2021/12/07 13:09:20;;;;;;;5.53;1.97;;;13.10;88.60;;;;;;5002290;28;20438;-84
2021/12/07 13:12:02;;;;;;;4.10;1.87;;;12.90;91.40;;;;;;5030196;28;20474;-85
2021/12/07 13:14:31;;;;;;;5.90;1.83;;;12.90;92.60;;;;;;5029788;28;20423;-85
2021/12/07 13:17:07;;;;;;;5.40;1.80;;;12.70;92.00;;;;;;5031299;28;20427;-85
2021/12/07 13:20:08;;;;;;;5.43;2.30;;;12.20;93.60;;;;;;5032344;28;20426;-83
2021/12/07 13:22:34;;;;;;;7.23;2.03;;;11.30;97.50;;;;;;5033771;28;20530;-83
2021/12/07 13:25:12;;;;;;;7.30;2.37;;;10.70;99.90;;;;;;5036550;28;20513;-83
2021/12/07 13:27:37;;;;;;;6.07;2.00;;;10.60;99.90;;;;;;5037244;28;20563;-82
2021/12/07 13:30:06;;;;;;;8.63;2.27;;;10.50;99.90;;;;;;5034864;28;20458;-83
2021/12/07 13:32:32;;;;;;;4.30;2.00;;;9.90;99.90;;;;;;5035645;28;20447;-82
2021/12/07 13:35:05;;;;;;;4.67;2.20;;;9.50;99.90;;;;;;5036334;28;20851;-82
2021/12/07 13:37:48;;;;;;;9.73;2.47;;;9.10;99.90;;;;;;5035665;28;20463;-82
2021/12/07 13:40:23;;;;;;;5.40;2.10;;;9.00;99.90;;;;;;5035101;28;20433;-83
2021/12/07 13:42:52;;;;;;;11.00;2.47;;;8.70;99.90;;;;;;5033158;28;20464;-82
2021/12/07 13:45:20;;;;;;;5.70;2.23;;;8.50;99.90;;;;;;5028249;28;20432;-82
2021/12/07 13:47:49;;;;;;;6.90;1.93;;;8.30;99.90;;;;;;5014290;28;20799;-83
2021/12/07 13:50:26;;;;;;;7.30;2.27;;;8.20;99.90;;;;;;5032991;28;20466;-83
2021/12/07 13:52:54;;;;;;;4.77;1.70;;;8.10;99.90;;;;;;5033005;28;20447;-82
2021/12/07 13:55:30;;;;;;;5.90;1.87;;;8.00;99.90;;;;;;5033295;28;20441;-82
2021/12/07 13:57:59;;;;;;;5.83;1.80;;;8.00;99.90;;;;;;5033105;28;20496;-82
2021/12/07 14:00:35;;;;;;;5.07;2.80;;;7.90;99.90;;;;;;5032593;28;20485;-82
2021/12/07 14:03:09;;;;;;;6.30;2.77;;;7.80;99.90;;;;;;5032926;28;20446;-82
2021/12/07 14:05:41;;;;;;;6.20;2.80;;;7.70;99.90;;;;;;5033589;28;20957;-81
2021/12/07 14:08:11;;;;;;;8.60;3.63;;;7.50;99.90;;;;;;5027111;28;20506;-82
2021/12/07 14:10:52;;;;;;;6.87;3.70;;;7.60;99.90;;;;;;5032772;28;20463;-82
2021/12/07 14:13:20;;;;;;;7.13;2.70;;;7.50;99.90;;;;;;5030776;28;20517;-82
2021/12/07 14:15:49;;;;;;;5.63;3.00;;;7.40;99.90;;;;;;5031891;28;20934;-82
2021/12/07 14:18:23;;;;;;;7.27;2.60;;;7.30;99.90;;;;;;5032737;28;20419;-83
2021/12/07 14:20:59;;;;;;;7.90;2.70;;;7.20;99.90;;;;;;5035806;28;20446;-79
2021/12/07 14:23:27;;;;;;;7.77;3.00;;;7.10;99.90;;;;;;5035762;28;20427;-81
2021/12/07 14:26:03;;;;;;;3.80;2.30;;;7.00;99.90;;;;;;5032819;28;20496;-81
2021/12/07 14:28:35;;;;;;;8.90;2.90;;;6.90;99.90;;;;;;5032644;28;20480;-81
2021/12/07 14:31:06;;;;;;;7.00;3.20;;;6.80;99.90;;;;;;5031289;28;20530;-81
2021/12/07 14:34:07;;;;;;;4.67;2.50;;;6.70;99.90;;;;;;5033346;28;20820;-81
2021/12/07 14:36:39;;;;;;;7.93;2.80;;;6.60;99.90;;;;;;4993717;28;20427;-82
2021/12/07 14:39:25;;;;;;;5.23;2.40;;;6.60;99.90;;;;;;5033322;28;20803;-82
2021/12/07 14:41:57;;;;;;;4.67;2.40;;;6.50;99.90;;;;;;5032655;28;21010;-81
2021/12/07 14:44:27;;;;;;;6.17;2.53;;;6.50;99.90;;;;;;5033003;28;20990;-81
2021/12/07 14:46:55;;;;;;;7.23;2.40;;;6.50;99.90;;;;;;5032746;28;20804;-81